Time;durP1;ratioP1;P1;durP2;ratioP2;P2;SDS_P1;SDS_P2;PMS_P1;PMS_P2;Temp;Humidity;BMP_temperature;BMP_pressure;BME280_temperature;BME280_humidity;BME280_pressure;Samples;Min_cycle;Max_cycle;Signal;HPM_P1;HPM_P2
2021/04/18 00:25:44;;;;;;;6.40;2.77;;;;;;;;;;4851788;28;21041;31
2021/04/18 00:28:27;;;;;;;6.45;2.87;;;;;;;;;;4110366;34;20159;-54
2021/04/18 00:31:14;;;;;;;6.35;2.97;;;;;;;;;;4103495;34;20560;-50
2021/04/18 00:33:43;;;;;;;7.10;3.60;;;;;;;;;;4098804;35;20131;-50
2021/04/18 00:36:17;;;;;;;7.15;3.00;;;;;;;;;;4086734;35;20096;-46
2021/04/18 00:38:45;;;;;;;4.12;3.10;;;;;;;;;;4086502;35;20468;-51
2021/04/18 00:41:12;;;;;;;4.60;2.90;;;;;;;;;;4075623;35;20497;-49
2021/04/18 00:43:42;;;;;;;5.15;2.72;;;;;;;;;;4098552;35;20123;-45
2021/04/18 00:46:10;;;;;;;4.32;2.65;;;;;;;;;;4098516;34;20136;-50
2021/04/18 00:48:41;;;;;;;6.37;2.78;;;;;;;;;;4090998;34;20168;-51
2021/04/18 00:51:08;;;;;;;4.53;2.58;;;;;;;;;;4111464;34;20217;-54
2021/04/18 00:53:35;;;;;;;2.72;2.33;;;;;;;;;;4111736;34;20128;-52
2021/04/18 00:56:01;;;;;;;5.30;2.80;;;;;;;;;;4111609;34;20155;-51
2021/04/18 00:58:28;;;;;;;6.82;2.85;;;;;;;;;;4111498;34;20112;-47
2021/04/18 01:00:54;;;;;;;3.60;2.47;;;;;;;;;;4099449;34;20456;-49
2021/04/18 01:03:20;;;;;;;6.93;2.70;;;;;;;;;;4099103;34;20108;-49
2021/04/18 01:05:46;;;;;;;3.78;2.15;;;;;;;;;;4099223;34;20096;-50
2021/04/18 01:08:13;;;;;;;4.87;2.78;;;;;;;;;;4111448;34;20131;-54
2021/04/18 01:10:39;;;;;;;3.83;2.47;;;;;;;;;;4111441;34;20692;-50
2021/04/18 01:13:05;;;;;;;3.47;2.40;;;;;;;;;;4099370;34;20431;-46
2021/04/18 01:15:31;;;;;;;6.30;2.50;;;;;;;;;;4111319;34;20126;-52
2021/04/18 01:17:57;;;;;;;3.08;2.42;;;;;;;;;;4111704;34;20139;-53
2021/04/18 01:20:23;;;;;;;4.55;2.50;;;;;;;;;;4111544;34;20175;-46
2021/04/18 01:22:49;;;;;;;5.78;2.80;;;;;;;;;;4111144;34;20119;-50
2021/04/18 01:25:16;;;;;;;3.30;2.40;;;;;;;;;;4111171;34;20127;-47
2021/04/18 01:27:45;;;;;;;3.67;2.22;;;;;;;;;;4111011;34;20142;-46
2021/04/18 01:30:14;;;;;;;4.45;2.95;;;;;;;;;;4111319;34;20493;-47
2021/04/18 01:32:43;;;;;;;7.62;2.47;;;;;;;;;;4111305;34;20147;-47
2021/04/18 01:35:10;;;;;;;6.95;3.05;;;;;;;;;;4111226;34;20188;-49
2021/04/18 01:37:36;;;;;;;4.30;2.37;;;;;;;;;;4111056;34;20117;-46
2021/04/18 01:40:02;;;;;;;4.72;2.15;;;;;;;;;;4087800;34;20112;-54
2021/04/18 01:42:28;;;;;;;3.90;2.35;;;;;;;;;;4098863;34;20116;-52
2021/04/18 01:44:54;;;;;;;5.50;2.95;;;;;;;;;;4111297;34;20209;-49
2021/04/18 01:47:20;;;;;;;4.32;2.67;;;;;;;;;;4098691;34;20124;-52
2021/04/18 01:49:46;;;;;;;6.20;2.87;;;;;;;;;;4111313;34;20107;-46
2021/04/18 01:52:12;;;;;;;4.82;2.50;;;;;;;;;;4110909;34;20134;-47
2021/04/18 01:54:38;;;;;;;5.07;2.78;;;;;;;;;;4098762;34;20141;-50
2021/04/18 01:57:05;;;;;;;4.43;2.90;;;;;;;;;;4111167;34;20144;-53
2021/04/18 01:59:30;;;;;;;9.30;3.08;;;;;;;;;;4110995;34;20123;-47
2021/04/18 02:02:10;;;;;;;8.27;3.50;;;;;;;;;;4110853;34;20142;-49
2021/04/18 02:04:38;;;;;;;2.95;2.05;;;;;;;;;;4111118;34;20108;-56
2021/04/18 02:07:04;;;;;;;2.90;2.00;;;;;;;;;;4111196;34;20193;-47
2021/04/18 02:09:31;;;;;;;5.78;2.30;;;;;;;;;;4110892;34;20123;-48
2021/04/18 02:12:00;;;;;;;3.55;2.60;;;;;;;;;;4110841;34;20119;-46
2021/04/18 02:14:26;;;;;;;3.40;2.47;;;;;;;;;;4110881;34;20505;-45
2021/04/18 02:16:53;;;;;;;7.05;2.70;;;;;;;;;;4110837;34;20115;-53
2021/04/18 02:19:19;;;;;;;6.10;3.30;;;;;;;;;;4110868;34;20093;-47
2021/04/18 02:21:45;;;;;;;9.57;3.33;;;;;;;;;;4110746;34;20122;-48
2021/04/18 02:24:11;;;;;;;5.97;3.05;;;;;;;;;;4110866;34;20197;-48
2021/04/18 02:26:37;;;;;;;10.13;3.87;;;;;;;;;;4110302;34;20100;-49
2021/04/18 02:29:03;;;;;;;6.35;3.83;;;;;;;;;;4110823;34;20136;-54
2021/04/18 02:31:31;;;;;;;8.90;4.40;;;;;;;;;;4110638;34;20168;-47
2021/04/18 02:33:57;;;;;;;10.18;4.78;;;;;;;;;;4110959;34;20152;-49
2021/04/18 02:36:23;;;;;;;7.70;4.40;;;;;;;;;;4098478;34;20104;-51
2021/04/18 02:38:49;;;;;;;8.05;4.53;;;;;;;;;;4110705;34;20112;-47
2021/04/18 02:41:15;;;;;;;12.05;4.60;;;;;;;;;;4110590;34;20132;-49
2021/04/18 02:43:41;;;;;;;11.23;4.40;;;;;;;;;;4110844;34;20135;-48
2021/04/18 02:46:07;;;;;;;10.98;4.20;;;;;;;;;;4110518;34;20153;-50
2021/04/18 02:48:33;;;;;;;7.65;4.70;;;;;;;;;;4098332;34;20191;-51
2021/04/18 02:50:59;;;;;;;9.15;4.70;;;;;;;;;;4109563;34;20556;-46
2021/04/18 02:53:25;;;;;;;8.13;4.05;;;;;;;;;;4110596;34;20153;-47
2021/04/18 02:55:51;;;;;;;7.15;3.97;;;;;;;;;;4110475;34;20136;-47
2021/04/18 02:58:17;;;;;;;5.28;3.45;;;;;;;;;;4110611;34;20139;-49
2021/04/18 03:00:43;;;;;;;4.05;3.33;;;;;;;;;;4110557;34;20198;-52
2021/04/18 03:03:09;;;;;;;4.30;2.67;;;;;;;;;;4110566;34;20132;-53
2021/04/18 03:05:35;;;;;;;3.85;2.58;;;;;;;;;;4098035;34;20124;-46
2021/04/18 03:08:02;;;;;;;5.35;2.60;;;;;;;;;;4110461;34;20120;-48
2021/04/18 03:10:28;;;;;;;3.70;2.67;;;;;;;;;;4110612;34;20232;-52
2021/04/18 03:12:58;;;;;;;4.65;2.30;;;;;;;;;;4110280;34;20124;-53
2021/04/18 03:15:25;;;;;;;3.67;2.12;;;;;;;;;;4098369;34;20092;-52
2021/04/18 03:17:52;;;;;;;3.25;2.33;;;;;;;;;;4098416;34;20468;-51
2021/04/18 03:20:18;;;;;;;3.75;2.30;;;;;;;;;;4110607;34;20302;-49
2021/04/18 03:22:45;;;;;;;3.17;2.28;;;;;;;;;;4110152;34;20116;-51
2021/04/18 03:25:11;;;;;;;5.60;2.50;;;;;;;;;;4110415;34;20569;-54
2021/04/18 03:27:39;;;;;;;7.57;2.65;;;;;;;;;;4110269;34;20287;-48
2021/04/18 03:30:07;;;;;;;5.90;2.95;;;;;;;;;;4087289;34;20106;-51
2021/04/18 03:32:34;;;;;;;4.50;2.70;;;;;;;;;;4110210;34;20128;-47
2021/04/18 03:35:00;;;;;;;5.65;2.85;;;;;;;;;;4110436;34;20124;-49
2021/04/18 03:37:26;;;;;;;4.22;2.95;;;;;;;;;;4110102;34;20121;-50
2021/04/18 03:39:53;;;;;;;5.75;3.55;;;;;;;;;;4110129;34;20201;-48
2021/04/18 03:42:19;;;;;;;7.03;3.28;;;;;;;;;;4109966;34;20114;-52
2021/04/18 03:44:45;;;;;;;4.90;3.15;;;;;;;;;;4110112;34;20120;-52
2021/04/18 03:47:11;;;;;;;13.25;2.95;;;;;;;;;;4110247;34;20159;-54
2021/04/18 03:49:37;;;;;;;6.10;2.50;;;;;;;;;;4110360;34;20104;-55
2021/04/18 03:52:04;;;;;;;2.47;2.00;;;;;;;;;;4110217;34;20116;-52
2021/04/18 03:54:30;;;;;;;4.22;2.25;;;;;;;;;;4110111;34;20112;-45
2021/04/18 03:56:56;;;;;;;3.97;2.62;;;;;;;;;;4086698;34;20103;-50
2021/04/18 03:59:26;;;;;;;7.43;2.87;;;;;;;;;;4097813;34;20437;-48
2021/04/18 04:01:56;;;;;;;6.95;3.30;;;;;;;;;;4097659;34;20894;-54
2021/04/18 04:04:23;;;;;;;6.87;2.87;;;;;;;;;;4110219;34;20535;-50
2021/04/18 04:06:52;;;;;;;5.75;3.65;;;;;;;;;;4110024;34;20171;-50
2021/04/18 04:09:26;;;;;;;8.48;3.95;;;;;;;;;;4088105;34;20136;-47
2021/04/18 04:11:53;;;;;;;6.62;3.75;;;;;;;;;;4108659;34;20140;-50
2021/04/18 04:14:21;;;;;;;7.20;3.53;;;;;;;;;;4110092;34;20113;-48
2021/04/18 04:16:48;;;;;;;9.68;3.45;;;;;;;;;;4086899;34;20270;-47
2021/04/18 04:19:35;;;;;;;12.82;4.32;;;;;;;;;;4109637;34;20291;-46
2021/04/18 04:22:03;;;;;;;10.07;3.10;;;;;;;;;;4109731;34;20209;-53
2021/04/18 04:24:30;;;;;;;13.18;3.60;;;;;;;;;;4097680;34;20189;-47
2021/04/18 04:26:57;;;;;;;28.58;9.57;;;;;;;;;;4109413;34;20120;-49
2021/04/18 04:29:26;;;;;;;23.42;9.73;;;;;;;;;;4110027;34;20119;-48
2021/04/18 04:31:58;;;;;;;20.95;7.55;;;;;;;;;;4097776;34;20144;-46
2021/04/18 04:34:27;;;;;;;1.92;1.45;;;;;;;;;;4109958;34;20130;-52
2021/04/18 04:36:54;;;;;;;5.47;2.67;;;;;;;;;;4109727;34;20123;-47
2021/04/18 04:39:22;;;;;;;9.25;4.72;;;;;;;;;;4109925;34;20107;-50
2021/04/18 04:41:51;;;;;;;2.53;2.03;;;;;;;;;;4097580;34;20120;-51
2021/04/18 04:44:18;;;;;;;5.15;3.03;;;;;;;;;;4109604;34;20652;-54
2021/04/18 04:46:53;;;;;;;6.93;2.75;;;;;;;;;;4098087;34;20468;-53
2021/04/18 04:49:22;;;;;;;6.18;3.00;;;;;;;;;;4109688;34;20100;-51
2021/04/18 04:51:51;;;;;;;7.80;3.58;;;;;;;;;;4108352;34;20136;-47
2021/04/18 04:54:23;;;;;;;2.35;1.80;;;;;;;;;;4097869;34;20623;-51
2021/04/18 04:56:51;;;;;;;3.25;2.30;;;;;;;;;;4109624;34;20100;-45
2021/04/18 04:59:20;;;;;;;3.83;2.03;;;;;;;;;;4109681;34;20213;-51
2021/04/18 05:01:48;;;;;;;2.03;1.67;;;;;;;;;;4097211;34;20195;-50
2021/04/18 05:04:17;;;;;;;4.95;2.85;;;;;;;;;;4109581;34;20538;-48
2021/04/18 05:06:46;;;;;;;2.40;2.03;;;;;;;;;;4097083;34;20146;-48
2021/04/18 05:09:14;;;;;;;5.55;2.87;;;;;;;;;;4109498;34;20115;-54
2021/04/18 05:11:40;;;;;;;5.57;2.40;;;;;;;;;;4096756;34;20508;-47
2021/04/18 05:14:07;;;;;;;4.43;2.22;;;;;;;;;;4097782;34;20108;-54
2021/04/18 05:16:35;;;;;;;3.10;2.33;;;;;;;;;;4109854;34;20122;-45
2021/04/18 05:19:01;;;;;;;5.15;2.70;;;;;;;;;;4099526;34;20134;-46
2021/04/18 05:21:28;;;;;;;11.25;4.87;;;;;;;;;;4098806;34;20532;-53
2021/04/18 05:23:59;;;;;;;12.70;5.03;;;;;;;;;;4111279;34;20101;-56
2021/04/18 05:26:35;;;;;;;8.88;3.53;;;;;;;;;;4110970;34;20124;-51
2021/04/18 05:29:05;;;;;;;4.75;3.33;;;;;;;;;;4109849;34;20096;-50
2021/04/18 05:31:40;;;;;;;7.85;3.05;;;;;;;;;;4111271;34;20463;-50
2021/04/18 05:34:10;;;;;;;5.87;2.40;;;;;;;;;;4111212;34;20116;-53
2021/04/18 05:36:51;;;;;;;3.53;2.20;;;;;;;;;;4088214;34;20549;-50
2021/04/18 05:39:22;;;;;;;10.60;3.30;;;;;;;;;;4111295;34;20131;-51
2021/04/18 05:42:00;;;;;;;11.18;4.85;;;;;;;;;;4110047;34;20120;-50
2021/04/18 05:44:30;;;;;;;10.63;4.45;;;;;;;;;;4098084;34;20119;-47
2021/04/18 05:47:00;;;;;;;17.58;6.03;;;;;;;;;;4087010;34;20127;-50
2021/04/18 05:49:36;;;;;;;13.43;5.00;;;;;;;;;;4098922;34;20547;-47
2021/04/18 05:52:15;;;;;;;8.45;3.35;;;;;;;;;;4111099;34;20191;-49
2021/04/18 05:55:07;;;;;;;8.07;3.17;;;;;;;;;;4111229;34;20096;-47
2021/04/18 05:57:47;;;;;;;13.70;5.12;;;;;;;;;;4097432;34;20221;-48
2021/04/18 06:00:28;;;;;;;13.93;5.85;;;;;;;;;;4111021;34;20120;-46
2021/04/18 06:02:55;;;;;;;10.43;3.78;;;;;;;;;;4098841;34;20116;-45
2021/04/18 06:05:25;;;;;;;2.28;1.52;;;;;;;;;;4098868;34;20524;-49
2021/04/18 06:07:51;;;;;;;1.37;1.27;;;;;;;;;;4110987;34;20555;-51
2021/04/18 06:10:18;;;;;;;10.48;4.87;;;;;;;;;;4098883;34;20108;-50
2021/04/18 06:12:48;;;;;;;17.40;6.32;;;;;;;;;;4110999;34;20112;-47
2021/04/18 06:18:08;;;;;;;20.27;7.72;;;;;;;;;;4107397;34;20136;-52
2021/04/18 06:20:35;;;;;;;3.97;2.35;;;;;;;;;;4108390;34;20135;-52
2021/04/18 06:23:01;;;;;;;8.82;3.95;;;;;;;;;;4086653;35;20275;-48
2021/04/18 06:25:35;;;;;;;13.00;5.87;;;;;;;;;;4083172;35;20138;-53
2021/04/18 06:28:02;;;;;;;11.18;4.82;;;;;;;;;;4095518;35;20116;-53
2021/04/18 06:30:32;;;;;;;13.07;4.62;;;;;;;;;;4095360;35;20682;-56
2021/04/18 06:33:38;;;;;;;19.27;6.12;;;;;;;;;;4085454;34;20100;-50
2021/04/18 06:36:04;;;;;;;;;;;;;;;;;;4107092;34;20128;-49
2021/04/18 06:38:30;;;;;;;7.93;4.35;;;;;;;;;;4091198;34;20408;-48
2021/04/18 06:40:56;;;;;;;5.00;2.87;;;;;;;;;;4083355;35;20135;-51
2021/04/18 06:43:22;;;;;;;9.82;3.20;;;;;;;;;;4095929;34;20588;-47
2021/04/18 06:45:50;;;;;;;5.68;2.80;;;;;;;;;;4110033;34;20116;-48
2021/04/18 06:48:19;;;;;;;6.78;2.80;;;;;;;;;;4067611;35;20498;-47
2021/04/18 06:50:47;;;;;;;4.85;3.08;;;;;;;;;;4086950;35;20448;-51
2021/04/18 06:53:12;;;;;;;3.90;2.75;;;;;;;;;;4101479;34;20103;-51
2021/04/18 06:55:39;;;;;;;5.90;2.30;;;;;;;;;;4098801;34;20104;-52
2021/04/18 06:58:04;;;;;;;3.67;2.33;;;;;;;;;;4095320;35;20115;-47
2021/04/18 07:00:31;;;;;;;3.22;1.90;;;;;;;;;;4084317;35;20114;-50
2021/04/18 07:03:22;;;;;;;6.82;2.20;;;;;;;;;;4089532;35;20097;-47
2021/04/18 07:05:49;;;;;;;7.60;2.90;;;;;;;;;;4097279;35;20536;-52
2021/04/18 07:08:29;;;;;;;4.72;2.25;;;;;;;;;;4093855;35;20492;-47
2021/04/18 07:11:19;;;;;;;4.30;2.12;;;;;;;;;;4094480;35;20517;-49
2021/04/18 07:13:46;;;;;;;5.57;1.98;;;;;;;;;;4087535;35;20472;-47
2021/04/18 07:16:22;;;;;;;2.08;1.80;;;;;;;;;;4090565;35;20120;-46
2021/04/18 07:19:46;;;;;;;4.72;1.90;;;;;;;;;;4090782;35;20517;-46
2021/04/18 07:23:38;;;;;;;8.80;2.55;;;;;;;;;;4144324;29;20217;-50
2021/04/18 07:26:27;;;;;;;3.37;1.85;;;;;;;;;;4136450;34;20440;-46
2021/04/18 07:29:15;;;;;;;3.47;2.47;;;;;;;;;;4140650;34;20107;-51
2021/04/18 07:31:41;;;;;;;7.43;2.75;;;;;;;;;;4137521;34;20138;-47
2021/04/18 07:34:11;;;;;;;4.40;2.25;;;;;;;;;;4133616;34;20215;-45
2021/04/18 07:36:40;;;;;;;1.92;1.62;;;;;;;;;;4123915;34;20191;-48
2021/04/18 07:39:26;;;;;;;3.70;1.95;;;;;;;;;;4145290;34;20526;-47
2021/04/18 07:41:55;;;;;;;7.35;2.87;;;;;;;;;;4585405;28;20150;-56
2021/04/18 07:44:23;;;;;;;4.32;2.50;;;;;;;;;;4129634;34;20542;-46
2021/04/18 07:46:50;;;;;;;2.70;1.73;;;;;;;;;;4129094;34;20157;-46
2021/04/18 07:51:51;;;;;;;3.03;2.00;;;;;;;;;;4673428;28;20107;-61
2021/04/18 07:54:18;;;;;;;3.22;1.90;;;;;;;;;;4177116;28;20181;-61
2021/04/18 07:56:47;;;;;;;4.18;1.80;;;;;;;;;;4155281;34;20083;-61
2021/04/18 07:59:14;;;;;;;3.47;1.90;;;;;;;;;;4163347;29;20115;-65
2021/04/18 08:01:40;;;;;;;8.68;1.87;;;;;;;;;;4159818;34;20095;-65
2021/04/18 08:04:07;;;;;;;2.45;1.80;;;;;;;;;;4158361;34;20208;-65
2021/04/18 08:06:33;;;;;;;2.42;1.70;;;;;;;;;;4144752;34;20139;-65
2021/04/18 08:08:58;;;;;;;2.20;1.92;;;;;;;;;;4152196;34;20107;-65
2021/04/18 08:11:24;;;;;;;4.60;2.22;;;;;;;;;;4163225;34;20134;-65
2021/04/18 08:13:52;;;;;;;3.33;1.90;;;;;;;;;;4150941;34;20121;-65
2021/04/18 08:16:30;;;;;;;2.35;1.70;;;;;;;;;;4137705;34;20126;-65
2021/04/18 08:19:06;;;;;;;6.10;2.03;;;;;;;;;;4162487;34;20115;-66
2021/04/18 08:21:43;;;;;;;5.50;2.75;;;;;;;;;;4163603;34;20123;-65
2021/04/18 08:24:18;;;;;;;3.70;2.37;;;;;;;;;;4163170;34;20125;-66
2021/04/18 08:27:01;;;;;;;4.45;1.87;;;;;;;;;;4163273;34;20145;-67
2021/04/18 08:29:27;;;;;;;3.78;2.20;;;;;;;;;;4163207;34;20126;-65
2021/04/18 08:31:57;;;;;;;6.05;2.45;;;;;;;;;;4162290;34;20539;-65
2021/04/18 08:34:28;;;;;;;15.35;3.12;;;;;;;;;;4149722;34;20565;-65
2021/04/18 08:36:55;;;;;;;9.32;2.05;;;;;;;;;;4139270;34;20439;-65
2021/04/18 08:39:42;;;;;;;5.20;2.35;;;;;;;;;;4150700;34;20127;-65
2021/04/18 08:42:09;;;;;;;8.68;2.50;;;;;;;;;;4152635;34;20439;-65
2021/04/18 08:44:36;;;;;;;2.85;1.65;;;;;;;;;;4150748;34;20182;-65
2021/04/18 08:47:16;;;;;;;3.97;2.10;;;;;;;;;;4162828;34;20095;-65
2021/04/18 08:49:51;;;;;;;3.17;1.98;;;;;;;;;;4165111;34;20123;-65
2021/04/18 08:52:21;;;;;;;27.98;4.28;;;;;;;;;;4165145;34;20546;-65
2021/04/18 08:54:48;;;;;;;6.78;2.50;;;;;;;;;;4165360;34;20157;-65
2021/04/18 08:57:27;;;;;;;4.78;2.10;;;;;;;;;;4162204;34;20127;-65
2021/04/18 08:59:56;;;;;;;4.15;2.35;;;;;;;;;;4159509;34;20118;-65
2021/04/18 09:02:25;;;;;;;2.92;2.30;;;;;;;;;;4165273;34;20114;-65
2021/04/18 09:04:53;;;;;;;1.37;1.27;;;;;;;;;;4164510;34;20114;-66
2021/04/18 09:07:21;;;;;;;9.75;1.70;;;;;;;;;;4165136;34;20122;-64
2021/04/18 09:09:47;;;;;;;4.78;1.85;;;;;;;;;;4164906;34;20450;-65
2021/04/18 09:12:16;;;;;;;2.85;1.50;;;;;;;;;;4152629;34;20111;-65
2021/04/18 09:14:47;;;;;;;3.85;1.70;;;;;;;;;;4164900;34;20110;-65
2021/04/18 09:17:24;;;;;;;3.33;1.70;;;;;;;;;;4164999;34;20171;-65
2021/04/18 09:19:57;;;;;;;3.10;1.85;;;;;;;;;;4165162;34;20125;-65
2021/04/18 09:22:33;;;;;;;4.00;1.90;;;;;;;;;;4165091;34;20134;-65
2021/04/18 09:25:08;;;;;;;2.90;1.45;;;;;;;;;;4165322;34;20186;-65
2021/04/18 09:27:36;;;;;;;3.20;1.45;;;;;;;;;;4165062;34;20115;-65
2021/04/18 09:30:09;;;;;;;9.77;1.73;;;;;;;;;;4164993;34;20126;-65
2021/04/18 09:32:44;;;;;;;1.65;1.35;;;;;;;;;;4164815;34;20114;-65
2021/04/18 09:35:11;;;;;;;4.40;2.15;;;;;;;;;;4152327;34;20115;-65
2021/04/18 09:37:41;;;;;;;2.67;1.60;;;;;;;;;;4151280;34;20123;-67
2021/04/18 09:40:17;;;;;;;3.80;1.95;;;;;;;;;;4138974;34;20615;-66
2021/04/18 09:42:46;;;;;;;5.12;1.77;;;;;;;;;;4151241;34;20131;-66
2021/04/18 09:45:17;;;;;;;5.45;1.80;;;;;;;;;;4138638;34;20106;-66
2021/04/18 09:47:51;;;;;;;0.98;0.98;;;;;;;;;;4151172;34;20115;-66
2021/04/18 09:50:32;;;;;;;6.45;2.05;;;;;;;;;;4138787;34;20088;-66
2021/04/18 09:53:12;;;;;;;5.18;1.90;;;;;;;;;;4151259;34;20111;-66
2021/04/18 09:55:53;;;;;;;3.03;1.27;;;;;;;;;;4151178;34;20100;-65
2021/04/18 09:58:29;;;;;;;6.85;1.90;;;;;;;;;;4153257;34;20087;-66
2021/04/18 10:00:56;;;;;;;2.03;1.58;;;;;;;;;;4164225;34;20111;-66
2021/04/18 10:03:42;;;;;;;12.20;2.60;;;;;;;;;;4152207;34;20230;-67
2021/04/18 10:06:08;;;;;;;31.17;2.92;;;;;;;;;;4164688;34;20107;-66
2021/04/18 10:08:40;;;;;;;4.50;1.55;;;;;;;;;;4164556;34;20852;-68
2021/04/18 10:11:06;;;;;;;7.82;2.20;;;;;;;;;;4164620;34;20555;-68
2021/04/18 10:13:56;;;;;;;3.97;1.50;;;;;;;;;;4164601;34;20100;-66
2021/04/18 10:16:37;;;;;;;3.28;1.52;;;;;;;;;;4164602;34;20171;-67
2021/04/18 10:19:20;;;;;;;1.25;1.15;;;;;;;;;;4164532;34;20176;-67
2021/04/18 10:22:02;;;;;;;4.68;1.75;;;;;;;;;;4152057;34;20110;-66
2021/04/18 10:24:38;;;;;;;1.40;1.30;;;;;;;;;;4164818;34;20222;-66
2021/04/18 10:27:05;;;;;;;2.70;2.10;;;;;;;;;;4164661;34;20129;-66
2021/04/18 10:29:32;;;;;;;2.90;1.50;;;;;;;;;;4164660;34;20118;-67
2021/04/18 10:31:58;;;;;;;7.47;2.03;;;;;;;;;;4151865;34;20563;-67
2021/04/18 10:34:24;;;;;;;5.22;2.20;;;;;;;;;;4151855;34;20201;-67
2021/04/18 10:36:50;;;;;;;52.17;4.85;;;;;;;;;;4163460;34;20122;-68
2021/04/18 10:39:16;;;;;;;7.68;1.90;;;;;;;;;;4164512;34;20143;-69
2021/04/18 10:41:45;;;;;;;1.98;1.40;;;;;;;;;;4165210;34;20119;-69
2021/04/18 10:44:20;;;;;;;7.55;1.83;;;;;;;;;;4165018;34;20105;-69
2021/04/18 10:46:49;;;;;;;3.90;1.60;;;;;;;;;;4152889;34;20131;-69
2021/04/18 10:49:15;;;;;;;3.25;1.60;;;;;;;;;;4161820;34;20138;-67
2021/04/18 10:51:41;;;;;;;6.75;1.87;;;;;;;;;;4144360;34;20547;-71
2021/04/18 10:54:07;;;;;;;3.55;2.03;;;;;;;;;;4164549;34;20133;-68
2021/04/18 10:56:33;;;;;;;5.55;1.90;;;;;;;;;;4164083;34;20135;-66
2021/04/18 10:58:59;;;;;;;6.20;3.45;;;;;;;;;;4150987;34;20190;-69
2021/04/18 11:01:25;;;;;;;2.22;1.95;;;;;;;;;;4162995;34;20115;-68
2021/04/18 11:03:52;;;;;;;5.32;1.70;;;;;;;;;;4164210;34;20544;-67
2021/04/18 11:06:18;;;;;;;2.40;1.40;;;;;;;;;;4164241;34;20279;-69
2021/04/18 11:08:44;;;;;;;2.00;1.50;;;;;;;;;;4164414;34;20138;-69
2021/04/18 11:11:11;;;;;;;3.17;1.55;;;;;;;;;;4163808;34;20134;-70
2021/04/18 11:13:38;;;;;;;2.75;2.53;;;;;;;;;;4164204;34;20099;-71
2021/04/18 11:16:04;;;;;;;5.70;1.67;;;;;;;;;;4164555;34;20113;-70
2021/04/18 11:18:31;;;;;;;6.47;2.25;;;;;;;;;;4157086;34;20119;-68
2021/04/18 11:20:56;;;;;;;12.60;2.20;;;;;;;;;;4142816;34;20114;-69
2021/04/18 11:23:22;;;;;;;6.55;2.00;;;;;;;;;;4155976;34;20134;-68
2021/04/18 11:25:48;;;;;;;7.78;1.98;;;;;;;;;;4156471;34;20107;-68
2021/04/18 11:28:14;;;;;;;6.10;1.62;;;;;;;;;;4156929;34;20211;-68
2021/04/18 11:30:40;;;;;;;2.95;1.90;;;;;;;;;;4157359;34;20134;-67
2021/04/18 11:33:06;;;;;;;3.30;1.95;;;;;;;;;;4157609;34;20102;-68
2021/04/18 11:35:33;;;;;;;1.62;1.52;;;;;;;;;;4143160;34;20118;-68
2021/04/18 11:38:00;;;;;;;2.62;1.60;;;;;;;;;;4156626;34;20471;-69
2021/04/18 11:40:26;;;;;;;3.17;1.60;;;;;;;;;;4156169;34;20126;-68
2021/04/18 11:42:53;;;;;;;1.92;1.40;;;;;;;;;;4155233;34;20138;-69
2021/04/18 11:45:19;;;;;;;4.12;1.42;;;;;;;;;;4156574;34;20470;-69
2021/04/18 11:47:45;;;;;;;8.20;2.17;;;;;;;;;;4156242;34;20130;-68
2021/04/18 11:50:12;;;;;;;5.25;1.87;;;;;;;;;;4155259;34;20722;-68
2021/04/18 11:52:38;;;;;;;12.52;1.85;;;;;;;;;;4154946;34;20236;-67
2021/04/18 11:55:07;;;;;;;6.57;1.60;;;;;;;;;;4158096;34;20551;-67
2021/04/18 11:57:35;;;;;;;2.50;1.45;;;;;;;;;;4157075;34;20186;-71
2021/04/18 12:00:01;;;;;;;4.80;2.53;;;;;;;;;;4143641;34;20495;-68
2021/04/18 12:02:27;;;;;;;6.60;3.05;;;;;;;;;;4151916;34;20115;-67
2021/04/18 12:04:53;;;;;;;9.30;2.80;;;;;;;;;;4156055;34;20114;-66
2021/04/18 12:07:18;;;;;;;5.53;2.17;;;;;;;;;;4155106;34;20239;-66
2021/04/18 12:09:44;;;;;;;4.18;1.80;;;;;;;;;;4156386;34;20099;-67
2021/04/18 12:12:10;;;;;;;12.82;2.47;;;;;;;;;;4155664;34;20103;-67
2021/04/18 12:14:36;;;;;;;3.55;2.05;;;;;;;;;;4155068;34;20119;-66
2021/04/18 12:17:03;;;;;;;6.95;2.30;;;;;;;;;;4156418;34;20131;-66
2021/04/18 12:19:29;;;;;;;5.60;2.30;;;;;;;;;;4155462;34;20459;-67
2021/04/18 12:21:55;;;;;;;1.87;1.50;;;;;;;;;;4155576;34;20110;-67
2021/04/18 12:24:21;;;;;;;5.50;1.95;;;;;;;;;;4160958;34;20443;-68
2021/04/18 12:26:47;;;;;;;1.30;1.20;;;;;;;;;;4163434;34;20110;-68
2021/04/18 12:29:13;;;;;;;3.28;1.60;;;;;;;;;;4163722;34;20134;-67
2021/04/18 12:31:41;;;;;;;10.13;2.15;;;;;;;;;;4163425;34;20466;-68
2021/04/18 12:34:08;;;;;;;9.15;1.52;;;;;;;;;;4151051;34;20159;-67
2021/04/18 12:36:34;;;;;;;8.10;2.12;;;;;;;;;;4162869;34;20189;-67
2021/04/18 12:39:00;;;;;;;6.35;2.08;;;;;;;;;;4162893;34;20179;-67
2021/04/18 12:41:28;;;;;;;3.10;2.03;;;;;;;;;;4163213;34;20134;-67
2021/04/18 12:43:53;;;;;;;5.97;2.00;;;;;;;;;;4163263;34;20107;-65
2021/04/18 12:46:20;;;;;;;5.68;1.80;;;;;;;;;;4163540;34;20243;-67
2021/04/18 12:48:47;;;;;;;4.70;1.80;;;;;;;;;;4163270;34;20126;-66
2021/04/18 12:51:15;;;;;;;6.37;2.42;;;;;;;;;;4163430;34;20173;-66
2021/04/18 12:53:41;;;;;;;7.28;2.12;;;;;;;;;;4150683;34;20107;-65
2021/04/18 12:56:07;;;;;;;3.05;1.45;;;;;;;;;;4163457;34;20211;-66
2021/04/18 12:58:36;;;;;;;3.30;2.00;;;;;;;;;;4163176;34;20565;-68
2021/04/18 13:01:03;;;;;;;3.05;1.80;;;;;;;;;;4141028;34;20114;-67
2021/04/18 13:03:28;;;;;;;8.40;2.47;;;;;;;;;;4149897;34;20127;-67
2021/04/18 13:05:55;;;;;;;4.95;2.08;;;;;;;;;;4149726;34;20675;-66
2021/04/18 13:08:21;;;;;;;5.30;1.77;;;;;;;;;;4149963;34;20479;-66
2021/04/18 13:10:47;;;;;;;3.62;1.67;;;;;;;;;;4149569;34;20111;-67
2021/04/18 13:13:13;;;;;;;3.25;1.70;;;;;;;;;;4149668;34;20142;-66
2021/04/18 13:15:40;;;;;;;4.18;1.70;;;;;;;;;;4149500;34;20107;-65
2021/04/18 13:18:06;;;;;;;2.20;1.80;;;;;;;;;;4149702;34;20119;-66
2021/04/18 13:20:32;;;;;;;4.80;1.45;;;;;;;;;;4147836;34;20139;-66
2021/04/18 13:22:59;;;;;;;4.35;1.98;;;;;;;;;;4137132;34;20130;-66
2021/04/18 13:25:25;;;;;;;2.45;1.87;;;;;;;;;;4149565;34;20506;-66
2021/04/18 13:27:51;;;;;;;2.90;1.95;;;;;;;;;;4149596;34;20126;-66
2021/04/18 13:30:17;;;;;;;5.22;2.30;;;;;;;;;;4149287;34;20123;-66
2021/04/18 13:32:44;;;;;;;6.93;1.50;;;;;;;;;;4149517;34;20464;-65
2021/04/18 13:35:11;;;;;;;3.55;1.65;;;;;;;;;;4149819;34;20123;-66
2021/04/18 13:37:38;;;;;;;2.87;1.65;;;;;;;;;;4151597;34;20641;-65
2021/04/18 13:40:05;;;;;;;3.85;2.10;;;;;;;;;;4151435;34;20445;-65
2021/04/18 13:42:31;;;;;;;8.30;1.67;;;;;;;;;;4151430;34;20119;-68
2021/04/18 13:44:58;;;;;;;3.05;2.10;;;;;;;;;;4151605;34;20220;-66
2021/04/18 13:47:23;;;;;;;2.53;1.70;;;;;;;;;;4151435;34;20126;-65
2021/04/18 13:49:50;;;;;;;1.90;1.75;;;;;;;;;;4151284;34;20206;-65
2021/04/18 13:52:16;;;;;;;3.20;1.80;;;;;;;;;;4151287;34;20115;-65
2021/04/18 13:54:41;;;;;;;2.17;1.90;;;;;;;;;;4151154;34;20124;-65
2021/04/18 13:57:07;;;;;;;3.25;2.28;;;;;;;;;;4139124;34;20236;-66
2021/04/18 13:59:33;;;;;;;3.25;1.70;;;;;;;;;;4152007;34;20194;-66
2021/04/18 14:01:59;;;;;;;7.20;1.50;;;;;;;;;;4139192;34;20127;-66
2021/04/18 14:04:25;;;;;;;2.22;1.62;;;;;;;;;;4151669;34;20096;-66
2021/04/18 14:06:51;;;;;;;4.35;1.70;;;;;;;;;;4151565;34;20538;-65
2021/04/18 14:09:17;;;;;;;4.30;2.08;;;;;;;;;;4151618;34;20123;-66
2021/04/18 14:11:43;;;;;;;3.92;2.22;;;;;;;;;;4151539;34;20547;-66
2021/04/18 14:14:11;;;;;;;7.30;2.05;;;;;;;;;;4151449;34;20504;-67
2021/04/18 14:16:38;;;;;;;8.07;2.22;;;;;;;;;;4151395;34;20561;-67
2021/04/18 14:19:04;;;;;;;5.57;2.70;;;;;;;;;;4151509;34;20194;-67
2021/04/18 14:21:29;;;;;;;6.60;2.30;;;;;;;;;;4152622;34;20135;-67
2021/04/18 14:23:55;;;;;;;4.97;2.28;;;;;;;;;;4151855;34;20208;-66
2021/04/18 14:26:23;;;;;;;5.95;2.00;;;;;;;;;;4151912;34;20138;-67
2021/04/18 14:28:50;;;;;;;11.12;2.62;;;;;;;;;;4151069;34;20577;-67
2021/04/18 14:31:16;;;;;;;4.20;2.00;;;;;;;;;;4151112;34;20191;-66
2021/04/18 14:33:42;;;;;;;5.93;2.50;;;;;;;;;;4157091;34;20158;-68
2021/04/18 14:36:08;;;;;;;6.45;2.87;;;;;;;;;;4157911;34;20126;-68
2021/04/18 14:38:34;;;;;;;12.70;2.25;;;;;;;;;;4160884;34;20543;-68
2021/04/18 14:41:00;;;;;;;4.55;2.62;;;;;;;;;;4162461;34;20223;-67
2021/04/18 14:43:27;;;;;;;6.15;2.40;;;;;;;;;;4154194;34;20194;-67
2021/04/18 14:45:53;;;;;;;7.43;3.85;;;;;;;;;;4151803;34;20643;-67
2021/04/18 14:48:19;;;;;;;7.85;2.90;;;;;;;;;;4151540;34;20226;-68
2021/04/18 14:50:45;;;;;;;5.50;2.65;;;;;;;;;;4151287;34;20204;-68
2021/04/18 14:53:11;;;;;;;9.23;3.35;;;;;;;;;;4138691;34;20130;-68
2021/04/18 14:55:37;;;;;;;6.50;3.55;;;;;;;;;;4151266;34;20632;-68
2021/04/18 14:58:04;;;;;;;8.85;3.33;;;;;;;;;;4138389;34;20209;-68
2021/04/18 15:00:30;;;;;;;8.20;2.90;;;;;;;;;;4150715;34;20119;-68
2021/04/18 15:02:56;;;;;;;5.65;4.03;;;;;;;;;;4151013;34;20135;-68
2021/04/18 15:05:23;;;;;;;5.03;2.42;;;;;;;;;;4138608;34;20623;-66
2021/04/18 15:07:51;;;;;;;5.43;2.40;;;;;;;;;;4164650;34;20114;-68
2021/04/18 15:10:17;;;;;;;8.95;2.62;;;;;;;;;;4152461;34;20542;-69
2021/04/18 15:12:43;;;;;;;5.97;2.53;;;;;;;;;;4151951;34;20103;-68
2021/04/18 15:15:09;;;;;;;6.15;2.03;;;;;;;;;;4161450;34;20122;-68
2021/04/18 15:17:35;;;;;;;7.10;2.42;;;;;;;;;;4156187;34;20130;-68
2021/04/18 15:20:01;;;;;;;5.25;2.10;;;;;;;;;;4144502;34;20111;-68
2021/04/18 15:22:27;;;;;;;3.17;2.33;;;;;;;;;;4156313;34;20158;-67